Time;durP1;ratioP1;P1;durP2;ratioP2;P2;SDS_P1;SDS_P2;PMS_P1;PMS_P2;Temp;Humidity;BMP_temperature;BMP_pressure;BME280_temperature;BME280_humidity;BME280_pressure;Samples;Min_cycle;Max_cycle;Signal;HPM_P1;HPM_P2
2021/11/19 00:01:24;;;;;;;7.8;4.6;;;;;;;;;;;;;
2021/11/19 00:03:54;;;;;;;7.2;4.4;;;;;;;;;;;;;
2021/11/19 00:06:21;;;;;;;8.2;5;;;;;;;;;;;;;
2021/11/19 00:08:47;;;;;;;7.9;4.9;;;;;;;;;;;;;
2021/11/19 00:11:13;;;;;;;9.4;5.8;;;;;;;;;;;;;
2021/11/19 00:13:38;;;;;;;7.9;5.3;;;;;;;;;;;;;
2021/11/19 00:16:07;;;;;;;7.5;5.1;;;;;;;;;;;;;
2021/11/19 00:18:32;;;;;;;8.2;5.3;;;;;;;;;;;;;
2021/11/19 00:21:00;;;;;;;8.5;5.8;;;;;;;;;;;;;
2021/11/19 00:23:25;;;;;;;7.9;5.1;;;;;;;;;;;;;
2021/11/19 00:25:52;;;;;;;6.1;4;;;;;;;;;;;;;
2021/11/19 00:28:17;;;;;;;6.8;4;;;;;;;;;;;;;
2021/11/19 00:30:42;;;;;;;6;3.9;;;;;;;;;;;;;
2021/11/19 00:33:07;;;;;;;5.8;4.2;;;;;;;;;;;;;
2021/11/19 00:35:34;;;;;;;5.5;3.7;;;;;;;;;;;;;
2021/11/19 00:37:59;;;;;;;6;3.9;;;;;;;;;;;;;
2021/11/19 00:40:25;;;;;;;5.1;3.6;;;;;;;;;;;;;
2021/11/19 00:42:51;;;;;;;4.3;3.1;;;;;;;;;;;;;
2021/11/19 00:45:20;;;;;;;4.2;3.1;;;;;;;;;;;;;
2021/11/19 00:47:44;;;;;;;4;3.5;;;;;;;;;;;;;
2021/11/19 00:50:10;;;;;;;4.4;3.4;;;;;;;;;;;;;
2021/11/19 00:52:35;;;;;;;4.3;3.2;;;;;;;;;;;;;
2021/11/19 00:55:00;;;;;;;4;3.3;;;;;;;;;;;;;
2021/11/19 00:57:25;;;;;;;5.4;3.6;;;;;;;;;;;;;
2021/11/19 00:59:51;;;;;;;4.1;3.5;;;;;;;;;;;;;
2021/11/19 01:02:16;;;;;;;4.2;3.3;;;;;;;;;;;;;
2021/11/19 01:04:42;;;;;;;6.6;3.8;;;;;;;;;;;;;
2021/11/19 01:07:07;;;;;;;6;3.8;;;;;;;;;;;;;
2021/11/19 01:09:33;;;;;;;5.4;3.7;;;;;;;;;;;;;
2021/11/19 01:11:59;;;;;;;3.7;2.9;;;;;;;;;;;;;
2021/11/19 01:14:25;;;;;;;5.8;3.6;;;;;;;;;;;;;
2021/11/19 01:16:50;;;;;;;4.7;3.3;;;;;;;;;;;;;
2021/11/19 01:19:17;;;;;;;5.6;3.5;;;;;;;;;;;;;
2021/11/19 01:21:42;;;;;;;6.3;3.6;;;;;;;;;;;;;
2021/11/19 01:24:09;;;;;;;5.6;3.6;;;;;;;;;;;;;
2021/11/19 01:26:34;;;;;;;4.9;3.3;;;;;;;;;;;;;
2021/11/19 01:29:00;;;;;;;5;3.8;;;;;;;;;;;;;
2021/11/19 01:31:26;;;;;;;4.9;3.5;;;;;;;;;;;;;
2021/11/19 01:33:52;;;;;;;4.5;3.3;;;;;;;;;;;;;
2021/11/19 01:36:17;;;;;;;4.6;3.4;;;;;;;;;;;;;
2021/11/19 01:38:43;;;;;;;4.7;3.5;;;;;;;;;;;;;
2021/11/19 01:41:07;;;;;;;4.8;3.5;;;;;;;;;;;;;
2021/11/19 01:43:33;;;;;;;5.1;3.9;;;;;;;;;;;;;
2021/11/19 01:45:59;;;;;;;5.1;3.6;;;;;;;;;;;;;
2021/11/19 01:48:24;;;;;;;4.7;3.6;;;;;;;;;;;;;
2021/11/19 01:50:49;;;;;;;5.9;3.5;;;;;;;;;;;;;
2021/11/19 01:53:16;;;;;;;4.2;3.2;;;;;;;;;;;;;
2021/11/19 01:55:41;;;;;;;4.5;3.1;;;;;;;;;;;;;
2021/11/19 01:58:06;;;;;;;5.4;3.6;;;;;;;;;;;;;
2021/11/19 02:00:32;;;;;;;5;3.3;;;;;;;;;;;;;
2021/11/19 02:02:56;;;;;;;4.6;3.5;;;;;;;;;;;;;
2021/11/19 02:05:24;;;;;;;4.1;3.2;;;;;;;;;;;;;
2021/11/19 02:07:49;;;;;;;5.6;3.1;;;;;;;;;;;;;
2021/11/19 02:10:17;;;;;;;3.6;2.8;;;;;;;;;;;;;
2021/11/19 02:12:44;;;;;;;3.5;3;;;;;;;;;;;;;
2021/11/19 02:15:07;;;;;;;3.3;2.9;;;;;;;;;;;;;
2021/11/19 02:17:35;;;;;;;3.3;3;;;;;;;;;;;;;
2021/11/19 02:20:00;;;;;;;3.8;2.9;;;;;;;;;;;;;
2021/11/19 02:22:25;;;;;;;3;2.7;;;;;;;;;;;;;
2021/11/19 02:24:50;;;;;;;3.4;3;;;;;;;;;;;;;
2021/11/19 02:27:19;;;;;;;4.4;3.1;;;;;;;;;;;;;
2021/11/19 02:29:43;;;;;;;4.4;3.1;;;;;;;;;;;;;
2021/11/19 02:32:10;;;;;;;3.2;2.6;;;;;;;;;;;;;
2021/11/19 02:34:35;;;;;;;4.1;2.8;;;;;;;;;;;;;
2021/11/19 02:37:00;;;;;;;4.7;3.2;;;;;;;;;;;;;
2021/11/19 02:39:26;;;;;;;5;2.6;;;;;;;;;;;;;
2021/11/19 02:41:51;;;;;;;3.3;2.7;;;;;;;;;;;;;
2021/11/19 02:44:16;;;;;;;4.1;3.1;;;;;;;;;;;;;
2021/11/19 02:46:41;;;;;;;4;2.8;;;;;;;;;;;;;
2021/11/19 02:49:06;;;;;;;3.6;2.8;;;;;;;;;;;;;
2021/11/19 02:51:34;;;;;;;2.9;2.6;;;;;;;;;;;;;
2021/11/19 02:53:57;;;;;;;3.8;2.3;;;;;;;;;;;;;
2021/11/19 02:56:22;;;;;;;4.2;2.9;;;;;;;;;;;;;
2021/11/19 02:58:47;;;;;;;3.3;2.8;;;;;;;;;;;;;
2021/11/19 03:01:14;;;;;;;4.1;3;;;;;;;;;;;;;
2021/11/19 03:03:39;;;;;;;3.7;3;;;;;;;;;;;;;
2021/11/19 03:06:04;;;;;;;3.9;3;;;;;;;;;;;;;
2021/11/19 03:08:29;;;;;;;4.2;3.3;;;;;;;;;;;;;
2021/11/19 03:10:56;;;;;;;3.9;3.2;;;;;;;;;;;;;
2021/11/19 03:13:21;;;;;;;4.1;3.2;;;;;;;;;;;;;
2021/11/19 03:15:52;;;;;;;5.9;3.4;;;;;;;;;;;;;
2021/11/19 03:18:18;;;;;;;4;3;;;;;;;;;;;;;
2021/11/19 03:20:43;;;;;;;4.7;3;;;;;;;;;;;;;
2021/11/19 03:23:09;;;;;;;3.9;3.2;;;;;;;;;;;;;
2021/11/19 03:25:35;;;;;;;4.5;3;;;;;;;;;;;;;
2021/11/19 03:28:01;;;;;;;5.4;3.1;;;;;;;;;;;;;
2021/11/19 03:30:26;;;;;;;4.6;2.9;;;;;;;;;;;;;
2021/11/19 03:32:53;;;;;;;3.9;2.9;;;;;;;;;;;;;
2021/11/19 03:35:18;;;;;;;5.6;3.7;;;;;;;;;;;;;
2021/11/19 03:37:43;;;;;;;4.1;3.1;;;;;;;;;;;;;
2021/11/19 03:40:08;;;;;;;4.4;3.3;;;;;;;;;;;;;
2021/11/19 03:42:34;;;;;;;4.7;3.2;;;;;;;;;;;;;
2021/11/19 03:44:59;;;;;;;4;2.9;;;;;;;;;;;;;
2021/11/19 03:47:26;;;;;;;4.9;3.3;;;;;;;;;;;;;
2021/11/19 03:49:51;;;;;;;4.4;3.1;;;;;;;;;;;;;
2021/11/19 03:52:16;;;;;;;3.7;2.9;;;;;;;;;;;;;
2021/11/19 03:54:42;;;;;;;4.9;3.2;;;;;;;;;;;;;
2021/11/19 03:57:07;;;;;;;3.9;3.4;;;;;;;;;;;;;
2021/11/19 03:59:33;;;;;;;5.1;3.2;;;;;;;;;;;;;
2021/11/19 04:02:31;;;;;;;4.7;3.5;;;;;;;1.48;96.90625;950.761;;;;
2021/11/19 04:04:56;;;;;;;4.2;3.2;;;;;;;1.35;97.33691;950.7169;;;;
2021/11/19 04:07:25;;;;;;;4.8;3.3;;;;;;;1.3;97.81445;950.6866;;;;
2021/11/19 04:09:50;;;;;;;7.7;3.3;;;;;;;1.28;97.89063;950.7114;;;;
2021/11/19 04:12:20;;;;;;;3.8;3.3;;;;;;;1.35;97.88281;950.6914;;;;
2021/11/19 04:14:53;;;;;;;4.4;3.1;;;;;;;1.43;98.06055;950.7402;;;;
2021/11/19 04:17:23;;;;;;;4.3;3;;;;;;;1.5;97.24707;950.7683;;;;
2021/11/19 04:19:56;;;;;;;5;3.2;;;;;;;1.28;97.62012;950.6985;;;;
2021/11/19 04:22:20;;;;;;;3.8;3;;;;;;;1.3;97.68066;950.6685;;;;
2021/11/19 04:24:50;;;;;;;4.1;3;;;;;;;1.27;97.70703;950.7867;;;;
2021/11/19 04:27:21;;;;;;;4.4;3.8;;;;;;;1.3;97.41406;950.8162;;;;
2021/11/19 04:29:52;;;;;;;5;3.7;;;;;;;1.34;97.8584;950.7733;;;;
2021/11/19 04:32:23;;;;;;;4.3;2.9;;;;;;;1.39;98.875;950.8203;;;;
2021/11/19 04:34:48;;;;;;;4.9;3.5;;;;;;;1.45;98.82227;950.7783;;;;
2021/11/19 04:37:15;;;;;;;5.7;3.4;;;;;;;1.58;98.23926;950.861;;;;
2021/11/19 04:39:40;;;;;;;5.3;3.2;;;;;;;1.71;97.02637;950.772;;;;
2021/11/19 04:42:05;;;;;;;3.8;2.9;;;;;;;1.66;96.24512;950.8297;;;;
2021/11/19 04:44:32;;;;;;;3.8;3.1;;;;;;;1.65;96.39746;950.8287;;;;
2021/11/19 04:46:57;;;;;;;4.6;3.6;;;;;;;1.78;96.13672;950.8427;;;;
2021/11/19 04:49:24;;;;;;;3.6;3.2;;;;;;;1.83;95.7334;950.8703;;;;
2021/11/19 04:51:49;;;;;;;5.3;3.5;;;;;;;1.82;95.17188;950.9001;;;;
2021/11/19 04:54:15;;;;;;;4.7;3.7;;;;;;;1.97;94.53516;950.9467;;;;
2021/11/19 04:56:41;;;;;;;5.4;3.3;;;;;;;1.88;93.85449;950.8883;;;;
2021/11/19 04:59:09;;;;;;;6.5;4.3;;;;;;;1.92;93.51563;950.9604;;;;
2021/11/19 05:01:33;;;;;;;7.9;4.6;;;;;;;2;93.29883;950.8933;;;;
2021/11/19 05:03:58;;;;;;;7.1;4.8;;;;;;;1.89;93.28418;950.9813;;;;
2021/11/19 05:06:27;;;;;;;6.3;5.1;;;;;;;1.68;94.42578;951.0059;;;;
2021/11/19 05:08:52;;;;;;;8.5;6;;;;;;;1.72;94.03125;951.0892;;;;
2021/11/19 05:11:19;;;;;;;7.2;5.7;;;;;;;1.71;93.92871;951.0995;;;;
2021/11/19 05:13:44;;;;;;;7.3;5.3;;;;;;;1.64;94.10254;951.0275;;;;
2021/11/19 05:16:23;;;;;;;7.1;5.5;;;;;;;1.62;94.17676;951.0736;;;;
2021/11/19 05:18:48;;;;;;;6.8;4.9;;;;;;;1.61;94.05176;951.171;;;;
2021/11/19 05:21:14;;;;;;;6.5;4.7;;;;;;;1.58;94.22266;951.1191;;;;
2021/11/19 05:23:39;;;;;;;6;4.6;;;;;;;1.53;94.19043;951.1027;;;;
2021/11/19 05:26:07;;;;;;;5.6;4.2;;;;;;;1.45;94.71973;951.0796;;;;
2021/11/19 05:28:32;;;;;;;6;4.4;;;;;;;1.51;94.58887;951.1331;;;;
2021/11/19 05:30:58;;;;;;;6;4.4;;;;;;;1.49;94.23828;951.0926;;;;
2021/11/19 05:33:23;;;;;;;5.8;4.1;;;;;;;1.55;94.23926;951.0317;;;;
2021/11/19 05:35:49;;;;;;;4.4;3.9;;;;;;;1.49;94.33887;951.1259;;;;
2021/11/19 05:38:13;;;;;;;6.1;4;;;;;;;1.44;94.66211;951.1863;;;;
2021/11/19 05:40:40;;;;;;;5.4;3.9;;;;;;;1.55;94.46289;951.1756;;;;
2021/11/19 05:43:05;;;;;;;4.7;4.1;;;;;;;1.53;94.4248;951.1608;;;;
2021/11/19 05:45:35;;;;;;;5.9;4;;;;;;;1.38;94.88477;951.2153;;;;
2021/11/19 05:48:06;;;;;;;6.2;4.8;;;;;;;1.36;95.4707;951.0844;;;;
2021/11/19 05:50:30;;;;;;;4.1;3.6;;;;;;;1.27;95.96484;951.0867;;;;
2021/11/19 05:53:01;;;;;;;3.9;3;;;;;;;1.23;96.58008;951.0954;;;;
2021/11/19 05:55:32;;;;;;;4.4;3.5;;;;;;;1.14;96.97266;951.1145;;;;
2021/11/19 05:57:57;;;;;;;5.6;3.6;;;;;;;1;98.07129;951.1097;;;;
2021/11/19 06:00:22;;;;;;;7.7;5.4;;;;;;;1.06;98.21777;951.0396;;;;
2021/11/19 06:02:47;;;;;;;6.7;4.9;;;;;;;1.04;98.42578;951.0722;;;;
2021/11/19 06:05:13;;;;;;;10.9;6;;;;;;;1.09;98.6377;951.0652;;;;
2021/11/19 06:07:38;;;;;;;12.4;6.7;;;;;;;1.16;98.45313;951.0413;;;;
2021/11/19 06:10:03;;;;;;;7.8;5.1;;;;;;;1.2;98.01465;951.0197;;;;
2021/11/19 06:12:28;;;;;;;8.8;4.9;;;;;;;1.36;97.5498;951.0995;;;;
2021/11/19 06:14:53;;;;;;;8;5.5;;;;;;;1.47;96.31348;951.0865;;;;
2021/11/19 06:17:23;;;;;;;8.6;5.6;;;;;;;1.54;95.70215;951.1244;;;;
2021/11/19 06:19:48;;;;;;;9.5;6.5;;;;;;;1.49;95.16602;951.0641;;;;
2021/11/19 06:22:13;;;;;;;12;7.6;;;;;;;1.47;95.12598;951.1836;;;;
2021/11/19 06:24:39;;;;;;;9.6;6.4;;;;;;;1.43;95.3418;951.2092;;;;
2021/11/19 06:27:05;;;;;;;9;5.3;;;;;;;1.39;95.82324;951.1853;;;;
2021/11/19 06:29:30;;;;;;;4;3.2;;;;;;;1.33;97.15234;951.1462;;;;
2021/11/19 06:31:56;;;;;;;4.2;3.3;;;;;;;1.31;97.72949;951.1616;;;;
2021/11/19 06:34:21;;;;;;;3.6;3;;;;;;;1.4;97.4707;951.2314;;;;
2021/11/19 06:36:55;;;;;;;4.2;3.2;;;;;;;1.37;98.08789;951.194;;;;
2021/11/19 06:39:18;;;;;;;3;2.7;;;;;;;1.4;98.00684;951.2327;;;;
2021/11/19 06:41:47;;;;;;;4.3;3.3;;;;;;;1.44;97.73633;951.1235;;;;
2021/11/19 06:44:12;;;;;;;3.2;2.7;;;;;;;1.4;98.19531;951.2594;;;;
2021/11/19 06:46:42;;;;;;;4;3.3;;;;;;;1.5;97.86035;951.2631;;;;
2021/11/19 06:49:12;;;;;;;5.5;3.7;;;;;;;1.56;97.77637;951.2375;;;;
2021/11/19 06:51:43;;;;;;;5.5;3.7;;;;;;;1.57;97.41895;951.2661;;;;
2021/11/19 06:54:12;;;;;;;7.2;4.1;;;;;;;1.53;97.1416;951.314;;;;
2021/11/19 06:56:37;;;;;;;6.7;4.2;;;;;;;1.62;96.68164;951.3484;;;;
2021/11/19 06:59:04;;;;;;;6;4.6;;;;;;;1.82;96.61523;951.2978;;;;
2021/11/19 07:01:29;;;;;;;6.5;4.4;;;;;;;1.82;95.83203;951.3226;;;;
2021/11/19 07:03:57;;;;;;;5.5;4;;;;;;;1.72;96.45801;951.2933;;;;
2021/11/19 07:06:21;;;;;;;6.4;3.5;;;;;;;1.79;96.76563;951.3585;;;;
2021/11/19 07:08:48;;;;;;;4.4;3.5;;;;;;;2.01;96.18848;951.3915;;;;
2021/11/19 07:11:13;;;;;;;4.6;3.5;;;;;;;2.08;94.53711;951.4344;;;;
2021/11/19 07:13:42;;;;;;;4.6;3.6;;;;;;;2.17;93.86035;951.4026;;;;
2021/11/19 07:16:10;;;;;;;6.5;3.7;;;;;;;2.19;93.39648;951.4239;;;;
2021/11/19 07:18:35;;;;;;;5.3;4.4;;;;;;;2.15;93.42188;951.3476;;;;
2021/11/19 07:21:06;;;;;;;5.7;4.3;;;;;;;2.6;92.82422;951.4447;;;;
2021/11/19 07:23:35;;;;;;;4;3.1;;;;;;;2.61;92.50391;951.4431;;;;
2021/11/19 07:26:00;;;;;;;4.7;3.9;;;;;;;2.8;90.42383;951.4716;;;;
2021/11/19 07:28:28;;;;;;;6.1;4.2;;;;;;;2.56;90.16113;951.3912;;;;
2021/11/19 07:30:53;;;;;;;7.4;5;;;;;;;2.59;90.96191;951.3475;;;;
2021/11/19 07:33:20;;;;;;;7.9;3.3;;;;;;;2.83;90.6084;951.2928;;;;
2021/11/19 07:35:45;;;;;;;3.9;3.3;;;;;;;3.43;89.42383;951.3484;;;;
2021/11/19 07:38:12;;;;;;;4.5;2.9;;;;;;;3.95;87.62305;951.3359;;;;
2021/11/19 07:40:38;;;;;;;4.1;2.8;;;;;;;4.49;83.87207;951.3653;;;;
2021/11/19 07:43:05;;;;;;;7;5.7;;;;;;;4.34;83.74121;951.3773;;;;
2021/11/19 07:45:35;;;;;;;7.1;4.4;;;;;;;4.87;81.99805;951.3967;;;;
2021/11/19 07:47:55;;;;;;;5.2;4.5;;;;;;;5.15;80.23828;951.3452;;;;
2021/11/19 07:50:20;;;;;;;3.9;3.2;;;;;;;4.93;80.18262;951.2823;;;;
2021/11/19 07:52:46;;;;;;;3.7;2.8;;;;;;;4.79;81.20508;951.2967;;;;
2021/11/19 07:55:18;;;;;;;3.5;2.8;;;;;;;4.85;81.38574;951.2693;;;;
2021/11/19 07:57:46;;;;;;;3.4;2.4;;;;;;;4.68;82.61426;951.3055;;;;
2021/11/19 08:00:12;;;;;;;2.8;2.4;;;;;;;5.35;80.2168;951.2494;;;;
2021/11/19 08:02:36;;;;;;;3.4;2.6;;;;;;;5.56;78.63281;951.3259;;;;
2021/11/19 08:05:06;;;;;;;3.7;2.8;;;;;;;5.44;78.5752;951.3212;;;;
2021/11/19 08:07:34;;;;;;;5;2.4;;;;;;;5.77;77.96875;951.2865;;;;
2021/11/19 08:10:01;;;;;;;4.4;2.5;;;;;;;5.65;78.21875;951.2831;;;;
2021/11/19 08:12:28;;;;;;;2.9;2.3;;;;;;;6.58;76.10547;951.2365;;;;
2021/11/19 08:14:53;;;;;;;5.1;2.8;;;;;;;7.72;70.72461;951.2135;;;;
2021/11/19 08:17:21;;;;;;;6;3.5;;;;;;;8.2;68.66992;951.1803;;;;
2021/11/19 08:19:47;;;;;;;4.9;2.9;;;;;;;8.25;68.05273;951.1269;;;;
2021/11/19 08:22:12;;;;;;;5.7;2.7;;;;;;;8.07;69.25;951.1459;;;;
2021/11/19 08:24:42;;;;;;;6.4;3.9;;;;;;;7.97;68.09863;951.1994;;;;
2021/11/19 08:27:13;;;;;;;8.2;4.2;;;;;;;7.63;70.7666;951.2004;;;;
2021/11/19 08:29:38;;;;;;;6.7;3.7;;;;;;;7.8;69.9668;951.1866;;;;
2021/11/19 08:32:07;;;;;;;7.7;3.9;;;;;;;8.47;68.05273;951.1517;;;;
2021/11/19 08:34:37;;;;;;;3.1;2.5;;;;;;;8.06;68;951.1432;;;;
2021/11/19 08:37:02;;;;;;;8.7;4.2;;;;;;;7.69;69.75488;951.068;;;;
2021/11/19 08:39:30;;;;;;;2.8;1.9;;;;;;;7.22;71.56055;951.037;;;;
2021/11/19 08:41:55;;;;;;;3.8;2.1;;;;;;;6.64;73.52344;951.0901;;;;
2021/11/19 08:44:22;;;;;;;2.4;1.8;;;;;;;6.46;74.38574;951.0847;;;;
2021/11/19 08:46:47;;;;;;;3.2;1.6;;;;;;;6.06;75.56934;951.0783;;;;
2021/11/19 08:49:15;;;;;;;6.2;2.2;;;;;;;6.31;75.96484;951.0449;;;;
2021/11/19 08:51:40;;;;;;;3.2;1.9;;;;;;;6.34;75.41699;951.0664;;;;
2021/11/19 08:54:07;;;;;;;2.2;1.8;;;;;;;6.19;75.83105;951.0544;;;;
2021/11/19 08:56:33;;;;;;;4.3;2.4;;;;;;;5.98;77.21777;951.0506;;;;
2021/11/19 08:58:58;;;;;;;4;2.8;;;;;;;5.89;77.38184;951.0508;;;;
2021/11/19 09:01:26;;;;;;;8.8;4.2;;;;;;;5.66;77.94922;951.0598;;;;
2021/11/19 09:03:51;;;;;;;7.2;3.8;;;;;;;5.62;77.99902;951.0803;;;;
2021/11/19 09:06:16;;;;;;;8.6;4.2;;;;;;;5.78;78.38867;951.0995;;;;
2021/11/19 09:08:42;;;;;;;7;4.3;;;;;;;5.84;77.90332;951.0822;;;;
2021/11/19 09:11:11;;;;;;;11.1;4.3;;;;;;;6.29;76.30078;951.1177;;;;
2021/11/19 09:13:36;;;;;;;7.2;2.7;;;;;;;6.66;74.5791;951.0867;;;;
2021/11/19 09:16:14;;;;;;;3.5;2.2;;;;;;;6.81;74.50391;951.0503;;;;
2021/11/19 09:18:46;;;;;;;3.3;2.1;;;;;;;6.75;74.13086;951.1383;;;;
2021/11/19 09:21:14;;;;;;;5.6;2.2;;;;;;;6.97;74;951.1461;;;;
2021/11/19 09:23:39;;;;;;;4.4;2.1;;;;;;;7.03;72.14063;951.137;;;;
2021/11/19 09:26:04;;;;;;;3.8;2.1;;;;;;;6.83;73.47656;951.1272;;;;
2021/11/19 09:28:30;;;;;;;6.2;1.8;;;;;;;6.87;74.12793;951.1186;;;;
2021/11/19 09:30:55;;;;;;;4.2;1.9;;;;;;;6.95;74.2666;951.108;;;;
2021/11/19 09:33:20;;;;;;;3.7;2;;;;;;;6.96;73.4873;951.0859;;;;
2021/11/19 09:35:47;;;;;;;9.3;3;;;;;;;6.95;73.84766;951.0223;;;;
2021/11/19 09:38:12;;;;;;;4.1;2.3;;;;;;;7.25;73.27637;950.9725;;;;
2021/11/19 09:40:40;;;;;;;4.7;2.2;;;;;;;7.56;72.35352;951.0197;;;;
2021/11/19 09:43:06;;;;;;;7.5;1.9;;;;;;;7.7;71.12012;950.9886;;;;
2021/11/19 09:45:32;;;;;;;7.5;2.1;;;;;;;7.87;70.70313;951.0081;;;;
2021/11/19 09:48:00;;;;;;;2.7;1.2;;;;;;;7.81;69.97949;950.9393;;;;
2021/11/19 09:50:25;;;;;;;2.3;1.4;;;;;;;7.45;70.36426;950.8264;;;;
2021/11/19 09:52:51;;;;;;;3.4;1.5;;;;;;;7.25;70.71484;950.8901;;;;
2021/11/19 09:55:32;;;;;;;2.3;1.5;;;;;;;7.46;71.39551;950.7881;;;;
2021/11/19 09:57:57;;;;;;;6.5;2.4;;;;;;;7.77;71.08496;950.8136;;;;
2021/11/19 10:00:23;;;;;;;1.8;1.5;;;;;;;8;68.81836;950.7523;;;;
2021/11/19 10:02:51;;;;;;;2.9;1.4;;;;;;;7.75;67.86035;950.7114;;;;
2021/11/19 10:05:18;;;;;;;4.4;1.7;;;;;;;7.74;68.50391;950.6919;;;;
2021/11/19 10:07:45;;;;;;;2.4;1.6;;;;;;;7.94;68.49023;950.6407;;;;
2021/11/19 10:10:18;;;;;;;2.5;1.5;;;;;;;8.04;67.39551;950.6014;;;;
2021/11/19 10:12:50;;;;;;;3.1;1.3;;;;;;;7.92;67.02344;950.4994;;;;
2021/11/19 10:15:24;;;;;;;2.8;1.5;;;;;;;8.37;66.91406;950.5606;;;;
2021/11/19 10:17:58;;;;;;;4.7;1.7;;;;;;;8.64;65.94434;950.4949;;;;
2021/11/19 10:20:25;;;;;;;3.1;1.8;;;;;;;8.75;65.23145;950.4899;;;;
2021/11/19 10:22:54;;;;;;;2.6;1.5;;;;;;;8.93;65.28125;950.4601;;;;
2021/11/19 10:25:21;;;;;;;3.8;1.2;;;;;;;9.09;62.76758;950.4714;;;;
2021/11/19 10:27:46;;;;;;;1.7;1.3;;;;;;;9.33;61.91602;950.418;;;;
2021/11/19 10:30:13;;;;;;;2.3;1.2;;;;;;;8.94;60.65332;950.3976;;;;
2021/11/19 10:32:37;;;;;;;5.3;1.5;;;;;;;8.92;61.6748;950.3287;;;;
2021/11/19 10:35:03;;;;;;;2.8;1.6;;;;;;;9.23;60.34277;950.2827;;;;
2021/11/19 10:37:28;;;;;;;1.4;1.1;;;;;;;9.29;59.14453;950.3326;;;;
2021/11/19 10:40:00;;;;;;;4.4;1.3;;;;;;;9.48;58.70313;950.2778;;;;
2021/11/19 10:42:23;;;;;;;3.2;1.2;;;;;;;9.74;59.66113;950.2189;;;;
2021/11/19 10:44:48;;;;;;;2.5;1.2;;;;;;;9.99;59.53711;950.2183;;;;
2021/11/19 10:47:17;;;;;;;2.4;1.3;;;;;;;10.19;58.52539;950.0804;;;;
2021/11/19 10:49:38;;;;;;;3.4;1.5;;;;;;;10.35;57.91992;950.1281;;;;
2021/11/19 10:52:03;;;;;;;4.2;1.8;;;;;;;10.69;56.52539;950.1264;;;;
2021/11/19 10:54:42;;;;;;;3.2;1.8;;;;;;;10.87;54.59473;950.0822;;;;
2021/11/19 10:57:07;;;;;;;1.7;1.1;;;;;;;11.18;56.31543;950.1075;;;;
2021/11/19 10:59:33;;;;;;;4.9;1.7;;;;;;;11.4;55.54297;950.182;;;;
2021/11/19 11:02:01;;;;;;;2;1.3;;;;;;;11.65;55.3125;950.1674;;;;
2021/11/19 11:04:30;;;;;;;2;1.4;;;;;;;11.66;53.72266;950.1852;;;;
2021/11/19 11:06:54;;;;;;;1;0.9;;;;;;;11.68;52.80859;950.1074;;;;
2021/11/19 11:09:21;;;;;;;1.7;1;;;;;;;12.04;54.50293;950.1255;;;;
2021/11/19 11:11:50;;;;;;;1;0.8;;;;;;;12.14;54.44629;950.1724;;;;
2021/11/19 11:14:15;;;;;;;0.9;0.8;;;;;;;12.14;53.73535;950.2355;;;;
2021/11/19 11:16:54;;;;;;;1.6;1.3;;;;;;;12.02;57.26172;950.1531;;;;
2021/11/19 11:19:19;;;;;;;1.5;1.3;;;;;;;11.94;57.4209;950.122;;;;
2021/11/19 11:21:46;;;;;;;3;1.4;;;;;;;12.02;56.74609;950.2104;;;;
2021/11/19 11:24:11;;;;;;;2.5;1.4;;;;;;;12.15;55.85742;950.183;;;;
2021/11/19 11:26:42;;;;;;;1.4;1.2;;;;;;;12.24;55.51367;950.1822;;;;
2021/11/19 11:29:07;;;;;;;2.6;1.3;;;;;;;12.2;54.74121;950.0844;;;;
2021/11/19 11:31:36;;;;;;;2.5;1.1;;;;;;;12.34;53.77148;950.0701;;;;
2021/11/19 11:34:01;;;;;;;1.4;0.8;;;;;;;12.77;54.30762;950.1268;;;;
2021/11/19 11:36:26;;;;;;;1.8;1.2;;;;;;;13.29;52.00488;950.0898;;;;
2021/11/19 11:38:53;;;;;;;1;0.9;;;;;;;14.05;49.41309;950.0073;;;;
2021/11/19 11:41:19;;;;;;;1.4;1.1;;;;;;;14.81;47.09082;949.9852;;;;
2021/11/19 11:43:46;;;;;;;0.8;0.8;;;;;;;15.32;45.05566;949.9644;;;;
2021/11/19 11:46:17;;;;;;;2.2;1;;;;;;;15.38;44.80859;949.9763;;;;
2021/11/19 11:48:47;;;;;;;2.2;1.1;;;;;;;15.08;45.3418;950.0273;;;;
2021/11/19 11:51:14;;;;;;;1.4;1;;;;;;;15.36;45.54395;949.9495;;;;
2021/11/19 11:53:39;;;;;;;1.5;1.1;;;;;;;15.17;45.68652;949.9738;;;;
2021/11/19 11:56:05;;;;;;;1.3;1.1;;;;;;;15.25;45.75195;950.0006;;;;
2021/11/19 11:58:30;;;;;;;1.5;1.1;;;;;;;15.06;45.60645;949.8997;;;;
2021/11/19 12:00:55;;;;;;;1.5;1;;;;;;;14.7;45.7998;949.9999;;;;
2021/11/19 12:03:21;;;;;;;1.3;1.2;;;;;;;14.53;45.74707;949.8748;;;;
2021/11/19 12:05:46;;;;;;;2.1;1.1;;;;;;;14.61;46.10156;949.9592;;;;
2021/11/19 12:08:12;;;;;;;2.4;1.4;;;;;;;14.48;45.24609;949.9342;;;;
2021/11/19 12:10:37;;;;;;;1.1;0.9;;;;;;;14.15;46.0293;949.9368;;;;
2021/11/19 12:13:05;;;;;;;1.2;1.1;;;;;;;13.86;47.33398;949.9619;;;;
2021/11/19 12:15:30;;;;;;;1.6;1.3;;;;;;;13.81;47.4873;949.9255;;;;
2021/11/19 12:18:09;;;;;;;1.4;1.1;;;;;;;13.77;47.33398;949.9241;;;;
2021/11/19 12:20:40;;;;;;;1.5;1.1;;;;;;;13.72;46.89258;949.9208;;;;
2021/11/19 12:23:04;;;;;;;2.1;1.1;;;;;;;13.74;47.51563;949.9275;;;;
2021/11/19 12:25:31;;;;;;;2.6;1.1;;;;;;;13.63;46.94043;949.9026;;;;
2021/11/19 12:27:57;;;;;;;2.3;1.1;;;;;;;13.57;48.12891;949.8428;;;;
2021/11/19 12:30:22;;;;;;;1.6;1.2;;;;;;;13.54;47.85059;949.8808;;;;
2021/11/19 12:32:48;;;;;;;1.6;1.1;;;;;;;13.52;48.18066;949.8452;;;;
2021/11/19 12:35:17;;;;;;;1.1;0.9;;;;;;;13.61;47.04199;949.8308;;;;
2021/11/19 12:37:42;;;;;;;2.9;1.2;;;;;;;13.61;48.91602;949.8516;;;;
2021/11/19 12:40:19;;;;;;;2.1;1.4;;;;;;;13.65;49.09277;949.8613;;;;
2021/11/19 12:42:45;;;;;;;1.4;1.1;;;;;;;13.65;48.05762;949.8709;;;;
2021/11/19 12:45:16;;;;;;;2;1.1;;;;;;;13.62;47.26074;949.8169;;;;
2021/11/19 12:47:42;;;;;;;1.4;1.1;;;;;;;13.56;46.8291;949.8403;;;;
2021/11/19 12:50:07;;;;;;;3.6;1;;;;;;;13.49;46.66016;949.8264;;;;
2021/11/19 12:52:32;;;;;;;1.8;1.3;;;;;;;13.38;47.18945;949.8003;;;;
2021/11/19 12:55:00;;;;;;;1.5;0.9;;;;;;;13.31;48.07715;949.8901;;;;
2021/11/19 12:57:25;;;;;;;1.4;1;;;;;;;13.26;48.56641;949.8973;;;;
2021/11/19 12:59:52;;;;;;;2.1;1.1;;;;;;;13.2;47.2041;949.8656;;;;
2021/11/19 13:02:18;;;;;;;2.7;1.3;;;;;;;13.14;47.34668;949.7601;;;;
2021/11/19 13:04:47;;;;;;;1.1;1;;;;;;;13.11;47.28516;949.7892;;;;
2021/11/19 13:07:15;;;;;;;1.2;1;;;;;;;13.1;47.10059;949.853;;;;
2021/11/19 13:09:41;;;;;;;1.1;1;;;;;;;13.07;47.14355;949.8237;;;;
2021/11/19 13:12:06;;;;;;;0.7;0.7;;;;;;;13.09;46.2041;949.8569;;;;
2021/11/19 13:14:32;;;;;;;1.2;0.7;;;;;;;12.87;47.76563;949.8269;;;;
2021/11/19 13:17:00;;;;;;;1.6;0.9;;;;;;;12.93;47.41602;949.8312;;;;
2021/11/19 13:19:26;;;;;;;0.9;0.7;;;;;;;13.04;46.21094;949.8408;;;;
2021/11/19 13:21:54;;;;;;;1.1;1;;;;;;;13.02;46.82813;949.7692;;;;
2021/11/19 13:24:19;;;;;;;3.9;1.2;;;;;;;13.01;46.14941;949.7095;;;;
2021/11/19 13:26:47;;;;;;;1.9;1.4;;;;;;;12.95;46.28125;949.6597;;;;
2021/11/19 13:29:12;;;;;;;1.2;1.1;;;;;;;12.93;47.03613;949.6456;;;;
2021/11/19 13:31:41;;;;;;;3.6;1.3;;;;;;;12.78;46.21777;949.5914;;;;
2021/11/19 13:34:12;;;;;;;3;1.4;;;;;;;12.61;47.31152;949.6191;;;;
2021/11/19 13:36:37;;;;;;;2.4;1.2;;;;;;;12.43;47.0625;949.5714;;;;
2021/11/19 13:39:02;;;;;;;1.9;1.6;;;;;;;12.17;47.75684;949.5319;;;;
2021/11/19 13:41:28;;;;;;;4;2;;;;;;;11.53;48.58984;949.4724;;;;
2021/11/19 13:43:55;;;;;;;6;2.8;;;;;;;11.46;49.56738;949.4117;;;;
2021/11/19 13:46:20;;;;;;;5;2.4;;;;;;;11.4;50.30371;949.3861;;;;
2021/11/19 13:48:47;;;;;;;5.2;3;;;;;;;11.3;49.60547;949.3549;;;;
2021/11/19 13:51:12;;;;;;;3.6;2.6;;;;;;;11.43;49.58594;949.3639;;;;
2021/11/19 13:53:38;;;;;;;7.3;3.1;;;;;;;11.51;50.47656;949.3123;;;;
2021/11/19 13:56:03;;;;;;;6.4;3.4;;;;;;;11.74;50.8457;949.3163;;;;
2021/11/19 13:58:28;;;;;;;4.4;2.8;;;;;;;11.75;50.11523;949.2975;;;;
2021/11/19 14:00:56;;;;;;;8.4;3.6;;;;;;;11.72;51.52051;949.2498;;;;
2021/11/19 14:03:21;;;;;;;4;2.5;;;;;;;11.62;51.72461;949.2481;;;;
2021/11/19 14:05:49;;;;;;;3.5;2.5;;;;;;;11.41;51.82617;949.2148;;;;
2021/11/19 14:08:14;;;;;;;4.6;3.5;;;;;;;11.21;53.49609;949.1902;;;;
2021/11/19 14:10:38;;;;;;;14.7;5.6;;;;;;;10.99;54.46289;949.2183;;;;
2021/11/19 14:13:03;;;;;;;8.5;4.4;;;;;;;10.85;54.72949;949.1756;;;;
2021/11/19 14:15:34;;;;;;;8.3;4.8;;;;;;;11.03;55.33594;949.1287;;;;
2021/11/19 14:18:03;;;;;;;9.8;5.6;;;;;;;11.1;55.29785;949.1289;;;;
2021/11/19 14:23:00;;;;;;;7.3;4.1;;;;;;;11.31;55.7373;949.0888;;;;
2021/11/19 14:25:25;;;;;;;8.6;4.8;;;;;;;11.46;55.65332;949.0998;;;;
2021/11/19 14:27:53;;;;;;;8;4;;;;;;;11.7;55.0791;949.0834;;;;
2021/11/19 14:30:19;;;;;;;9.1;4.1;;;;;;;11.98;55.25098;949.1099;;;;
2021/11/19 14:32:44;;;;;;;11.6;5;;;;;;;11.94;54.63867;949.1085;;;;
2021/11/19 14:35:13;;;;;;;10.1;5.3;;;;;;;11.91;54.7832;949.0988;;;;
2021/11/19 14:37:38;;;;;;;6.7;4;;;;;;;11.78;54.58398;949.0991;;;;
2021/11/19 14:40:08;;;;;;;7.4;3.9;;;;;;;11.57;56.0127;949.1128;;;;
2021/11/19 14:42:38;;;;;;;8.2;5.3;;;;;;;11.55;57.70313;949.1523;;;;
2021/11/19 14:45:03;;;;;;;12.3;7.6;;;;;;;11.48;60.74707;949.1369;;;;
2021/11/19 14:47:30;;;;;;;12.9;5.7;;;;;;;11.16;62.97852;949.1765;;;;
2021/11/19 14:49:55;;;;;;;63.4;29.8;;;;;;;10.77;64.78418;949.2363;;;;
2021/11/19 14:52:19;;;;;;;44.7;22.9;;;;;;;10.68;65.52539;949.2562;;;;
2021/11/19 14:54:44;;;;;;;29.4;16.3;;;;;;;10.63;66.96777;949.2173;;;;
2021/11/19 14:57:09;;;;;;;7.9;4.6;;;;;;;10.45;68.38965;949.17;;;;
2021/11/19 14:59:37;;;;;;;7;3.4;;;;;;;10.27;68.88574;949.1728;;;;
2021/11/19 15:02:02;;;;;;;9.1;4.1;;;;;;;10.13;69.23926;949.1752;;;;
2021/11/19 15:04:31;;;;;;;7.8;4.8;;;;;;;10.06;69.29785;949.1297;;;;
2021/11/19 15:06:56;;;;;;;8.1;5;;;;;;;10.06;69.36621;949.1344;;;;
2021/11/19 15:09:22;;;;;;;8.9;4.4;;;;;;;10;69.27637;949.1641;;;;
2021/11/19 15:11:54;;;;;;;8.7;4.2;;;;;;;9.88;69.68945;949.1606;;;;
2021/11/19 15:14:18;;;;;;;9.2;4.2;;;;;;;9.82;70.20508;949.2043;;;;
2021/11/19 15:16:59;;;;;;;8.9;4.4;;;;;;;9.76;70.2627;949.1631;;;;
2021/11/19 15:19:24;;;;;;;7.5;4.5;;;;;;;9.67;70.86523;949.1725;;;;
2021/11/19 15:21:53;;;;;;;7.2;4.6;;;;;;;9.63;70.56152;949.2045;;;;
2021/11/19 15:24:18;;;;;;;8.6;4.4;;;;;;;9.51;71.37402;949.1768;;;;
2021/11/19 15:26:43;;;;;;;7.1;3.9;;;;;;;9.29;71.5293;949.2697;;;;
2021/11/19 15:29:10;;;;;;;6.5;3.4;;;;;;;8.99;72.32324;949.1969;;;;
2021/11/19 15:31:35;;;;;;;11.8;3.6;;;;;;;8.9;72.80762;949.1809;;;;
2021/11/19 15:34:01;;;;;;;13.4;4.1;;;;;;;8.82;73.03223;949.2275;;;;
2021/11/19 15:36:30;;;;;;;11.7;3.8;;;;;;;8.79;73.12988;949.22;;;;
2021/11/19 15:38:55;;;;;;;11.6;3.8;;;;;;;8.71;73.35352;949.2711;;;;
2021/11/19 15:41:20;;;;;;;13;4.9;;;;;;;8.65;73.75391;949.2335;;;;
2021/11/19 15:43:46;;;;;;;12.5;5.7;;;;;;;8.57;74.34375;949.2876;;;;
2021/11/19 15:46:11;;;;;;;11.7;6;;;;;;;8.45;74.74219;949.3348;;;;